Time;durP1;ratioP1;P1;durP2;ratioP2;P2;SDS_P1;SDS_P2;PMS_P1;PMS_P2;Temp;Humidity;BMP_temperature;BMP_pressure;BME280_temperature;BME280_humidity;BME280_pressure;Samples;Min_cycle;Max_cycle;Signal;HPM_P1;HPM_P2
2021/06/23 00:02:00;;;;;;;9.83;4.50;;;;;;;;;;5108133;28;20909;-79
2021/06/23 00:04:26;;;;;;;6.60;5.10;;;;;;;;;;5093707;28;20421;-79
2021/06/23 00:06:52;;;;;;;7.22;4.45;;;;;;;;;;5099487;28;20901;-77
2021/06/23 00:09:18;;;;;;;6.93;4.20;;;;;;;;;;5101189;28;20233;-75
2021/06/23 00:11:45;;;;;;;5.93;4.27;;;;;;;;;;5096758;28;20420;-76
2021/06/23 00:14:12;;;;;;;5.30;3.93;;;;;;;;;;5093366;28;20398;-80
2021/06/23 00:16:38;;;;;;;10.53;3.90;;;;;;;;;;5093893;28;20402;-79
2021/06/23 00:19:04;;;;;;;8.90;4.60;;;;;;;;;;5093619;28;20406;-77
2021/06/23 00:21:30;;;;;;;6.70;3.70;;;;;;;;;;5095107;28;20410;-78
2021/06/23 00:23:56;;;;;;;9.40;4.13;;;;;;;;;;5094385;28;20497;-79
2021/06/23 00:26:22;;;;;;;7.10;4.97;;;;;;;;;;5093561;28;20458;-79
2021/06/23 00:28:48;;;;;;;10.50;4.70;;;;;;;;;;5104007;28;20457;-77
2021/06/23 00:31:15;;;;;;;6.03;4.30;;;;;;;;;;5094615;28;20401;-79
2021/06/23 00:33:42;;;;;;;9.23;4.70;;;;;;;;;;5093427;28;20498;-76
2021/06/23 00:36:08;;;;;;;9.43;4.33;;;;;;;;;;5093626;28;20412;-79
2021/06/23 00:38:34;;;;;;;6.80;4.17;;;;;;;;;;5093370;28;20755;-76
2021/06/23 00:41:00;;;;;;;7.63;4.30;;;;;;;;;;5093571;28;20789;-80
2021/06/23 00:43:26;;;;;;;5.40;3.90;;;;;;;;;;5093098;28;20762;-76
2021/06/23 00:45:53;;;;;;;10.93;4.67;;;;;;;;;;5093327;28;20810;-79
2021/06/23 00:48:28;;;;;;;8.80;4.30;;;;;;;;;;5106567;28;20416;-77
2021/06/23 00:50:55;;;;;;;10.43;4.47;;;;;;;;;;5112227;28;20916;-80
2021/06/23 00:53:21;;;;;;;9.20;4.23;;;;;;;;;;5112479;28;20437;-77
2021/06/23 00:55:47;;;;;;;8.10;4.03;;;;;;;;;;5093248;28;20451;-77
2021/06/23 00:58:14;;;;;;;7.27;4.30;;;;;;;;;;5092962;28;20413;-79
2021/06/23 01:00:40;;;;;;;5.80;4.10;;;;;;;;;;5093370;28;20409;-80
2021/06/23 01:03:08;;;;;;;8.30;4.03;;;;;;;;;;5108187;28;20917;-77
2021/06/23 01:05:35;;;;;;;8.37;4.03;;;;;;;;;;5113464;28;20448;-81
2021/06/23 01:08:03;;;;;;;7.40;4.70;;;;;;;;;;5113006;28;20435;-78
2021/06/23 01:10:31;;;;;;;12.50;4.83;;;;;;;;;;5113371;28;20436;-78
2021/06/23 01:13:02;;;;;;;8.80;4.63;;;;;;;;;;5096361;28;20430;-79
2021/06/23 01:15:29;;;;;;;8.93;5.13;;;;;;;;;;5093219;28;20405;-75
2021/06/23 01:17:55;;;;;;;7.73;5.07;;;;;;;;;;5092711;28;20417;-76
2021/06/23 01:20:22;;;;;;;7.80;4.50;;;;;;;;;;5092935;28;20626;-79
2021/06/23 01:22:48;;;;;;;9.97;4.80;;;;;;;;;;5092827;28;20430;-80
2021/06/23 01:25:15;;;;;;;10.00;4.83;;;;;;;;;;5092736;28;20460;-79
2021/06/23 01:27:42;;;;;;;8.30;4.80;;;;;;;;;;5110411;28;20739;-76
2021/06/23 01:30:09;;;;;;;6.78;4.60;;;;;;;;;;5104529;28;20821;-78
2021/06/23 01:32:35;;;;;;;7.00;5.20;;;;;;;;;;5096330;28;20195;-77
2021/06/23 01:35:01;;;;;;;9.70;4.60;;;;;;;;;;5096390;28;20413;-78
2021/06/23 01:37:27;;;;;;;7.20;4.90;;;;;;;;;;5096316;28;20409;-76
2021/06/23 01:39:53;;;;;;;7.20;4.60;;;;;;;;;;5096890;28;20501;-78
2021/06/23 01:42:19;;;;;;;7.97;4.90;;;;;;;;;;5096527;28;20517;-78
2021/06/23 01:44:45;;;;;;;7.13;5.20;;;;;;;;;;5096585;28;21029;-78
2021/06/23 01:47:11;;;;;;;6.90;5.20;;;;;;;;;;5100808;28;20444;-74
2021/06/23 01:49:38;;;;;;;6.23;4.80;;;;;;;;;;5116970;28;20412;-80
2021/06/23 01:52:04;;;;;;;10.47;4.90;;;;;;;;;;5116736;27;20520;-80
2021/06/23 01:54:30;;;;;;;6.60;4.60;;;;;;;;;;5116767;28;20802;-73
2021/06/23 01:56:56;;;;;;;10.90;5.17;;;;;;;;;;5116804;27;20466;-78
2021/06/23 01:59:22;;;;;;;8.27;5.13;;;;;;;;;;5116605;28;20405;-77
2021/06/23 02:01:58;;;;;;;11.47;6.27;;;;;;;;;;5112805;28;20451;-75
2021/06/23 02:04:26;;;;;;;9.10;4.77;;;;;;;;;;5095739;28;20542;-80
2021/06/23 02:07:11;;;;;;;7.27;5.10;;;;;;;;;;5096085;28;20786;-76
2021/06/23 02:09:56;;;;;;;7.73;5.03;;;;;;;;;;5096044;28;20784;-78
2021/06/23 02:12:34;;;;;;;8.80;5.20;;;;;;;;;;5095984;28;20441;-76
2021/06/23 02:15:00;;;;;;;7.13;4.70;;;;;;;;;;5095602;28;20417;-80
2021/06/23 02:17:27;;;;;;;10.10;5.60;;;;;;;;;;5096319;28;20463;-75
2021/06/23 02:19:54;;;;;;;10.63;5.67;;;;;;;;;;5095859;28;20503;-77
2021/06/23 02:22:21;;;;;;;7.30;5.20;;;;;;;;;;5095799;28;20472;-77
2021/06/23 02:24:47;;;;;;;9.70;5.53;;;;;;;;;;5101643;28;20940;-78
2021/06/23 02:27:13;;;;;;;15.23;5.70;;;;;;;;;;5116079;28;20525;-78
2021/06/23 02:29:40;;;;;;;8.27;5.80;;;;;;;;;;5110431;28;20449;-77
2021/06/23 02:32:07;;;;;;;9.10;6.07;;;;;;;;;;5095614;28;20509;-76
2021/06/23 02:34:33;;;;;;;7.70;5.50;;;;;;;;;;5095284;28;20414;-79
2021/06/23 02:37:02;;;;;;;9.73;5.70;;;;;;;;;;5095366;28;20419;-77
2021/06/23 02:39:29;;;;;;;14.90;6.30;;;;;;;;;;5093816;28;20959;-76
2021/06/23 02:41:55;;;;;;;6.47;5.53;;;;;;;;;;5094493;28;20482;-81
2021/06/23 02:44:21;;;;;;;7.20;5.93;;;;;;;;;;5108839;28;20774;-79
2021/06/23 02:46:47;;;;;;;12.47;7.80;;;;;;;;;;5095738;28;20453;-80
2021/06/23 02:49:14;;;;;;;8.93;6.70;;;;;;;;;;5115359;28;20412;-77
2021/06/23 02:51:41;;;;;;;9.07;6.70;;;;;;;;;;5115258;28;20424;-74
2021/06/23 02:54:08;;;;;;;15.83;7.90;;;;;;;;;;5115935;28;20774;-77
2021/06/23 02:56:35;;;;;;;8.37;7.50;;;;;;;;;;5115801;28;20913;-79
2021/06/23 02:59:02;;;;;;;12.30;7.90;;;;;;;;;;5115131;28;20440;-78
2021/06/23 03:01:28;;;;;;;15.53;8.10;;;;;;;;;;5102477;28;20413;-76
2021/06/23 03:03:54;;;;;;;16.80;7.45;;;;;;;;;;5107925;28;20421;-79
2021/06/23 03:06:20;;;;;;;11.03;7.80;;;;;;;;;;5094926;28;20252;-79
2021/06/23 03:08:46;;;;;;;8.10;7.00;;;;;;;;;;5094579;28;20425;-75
2021/06/23 03:11:12;;;;;;;13.60;7.75;;;;;;;;;;5094624;28;20437;-79
2021/06/23 03:13:38;;;;;;;9.05;6.72;;;;;;;;;;5094900;28;20191;-78
2021/06/23 03:16:04;;;;;;;10.20;6.53;;;;;;;;;;5107005;28;20539;-78
2021/06/23 03:18:34;;;;;;;14.25;7.75;;;;;;;;;;5099034;28;20425;-79
2021/06/23 03:21:01;;;;;;;9.88;7.55;;;;;;;;;;5095496;28;20183;-81
2021/06/23 03:23:27;;;;;;;12.27;7.45;;;;;;;;;;5094939;28;20687;-77
2021/06/23 03:25:53;;;;;;;10.20;6.88;;;;;;;;;;5111264;28;20203;-79
2021/06/23 03:28:19;;;;;;;10.60;7.50;;;;;;;;;;5115851;28;20517;-75
2021/06/23 03:30:45;;;;;;;9.52;6.65;;;;;;;;;;5113958;28;20216;-81
2021/06/23 03:33:11;;;;;;;9.40;7.40;;;;;;;;;;5094508;28;20661;-79
2021/06/23 03:35:38;;;;;;;12.63;7.68;;;;;;;;;;5095324;28;20187;-77
2021/06/23 03:38:04;;;;;;;10.80;7.57;;;;;;;;;;5096815;28;20179;-77
2021/06/23 03:40:30;;;;;;;10.82;6.60;;;;;;;;;;5097773;28;20171;-79
2021/06/23 03:42:56;;;;;;;11.97;6.80;;;;;;;;;;5095354;28;20202;-77
2021/06/23 03:45:22;;;;;;;10.93;6.83;;;;;;;;;;5095166;28;20479;-79
2021/06/23 03:47:48;;;;;;;11.40;6.80;;;;;;;;;;5105326;28;20423;-76
2021/06/23 03:50:15;;;;;;;9.53;6.83;;;;;;;;;;5098781;28;20410;-79
2021/06/23 03:52:41;;;;;;;8.03;6.90;;;;;;;;;;5095750;28;20429;-78
2021/06/23 03:55:09;;;;;;;11.80;7.40;;;;;;;;;;5095223;28;20420;-75
2021/06/23 03:57:35;;;;;;;9.27;7.57;;;;;;;;;;5094230;28;20424;-79
2021/06/23 04:00:02;;;;;;;11.38;6.88;;;;;;;;;;5108116;28;20772;-81
2021/06/23 04:02:28;;;;;;;10.60;7.43;;;;;;;;;;5095049;28;20545;-78
2021/06/23 04:04:54;;;;;;;10.60;5.90;;;;;;;;;;5098363;28;20202;-80
2021/06/23 04:07:20;;;;;;;9.50;6.30;;;;;;;;;;5104558;28;20428;-78
2021/06/23 04:09:46;;;;;;;8.20;6.60;;;;;;;;;;5094672;28;20405;-77
2021/06/23 04:12:12;;;;;;;11.93;6.60;;;;;;;;;;5093735;28;20425;-79
2021/06/23 04:14:38;;;;;;;8.87;6.00;;;;;;;;;;5093710;28;20416;-78
2021/06/23 04:17:04;;;;;;;10.13;6.70;;;;;;;;;;5094562;28;20402;-77
2021/06/23 04:19:30;;;;;;;13.63;5.53;;;;;;;;;;5102800;28;20413;-79
2021/06/23 04:21:56;;;;;;;9.70;6.50;;;;;;;;;;5094704;28;20429;-82
2021/06/23 04:24:23;;;;;;;9.00;6.23;;;;;;;;;;5096332;28;20435;-77
2021/06/23 04:26:49;;;;;;;12.30;6.37;;;;;;;;;;5114243;28;20576;-79
2021/06/23 04:29:15;;;;;;;12.53;6.33;;;;;;;;;;5110641;28;20792;-77
2021/06/23 04:31:42;;;;;;;9.70;5.77;;;;;;;;;;5093518;28;20440;-73
2021/06/23 04:34:08;;;;;;;12.03;6.23;;;;;;;;;;5093310;28;20456;-77
2021/06/23 04:36:34;;;;;;;10.40;6.07;;;;;;;;;;5092272;28;20498;-81
2021/06/23 04:39:00;;;;;;;13.47;6.33;;;;;;;;;;5093470;28;20424;-75
2021/06/23 04:41:26;;;;;;;9.83;6.27;;;;;;;;;;5093731;28;20469;-78
2021/06/23 04:43:52;;;;;;;12.63;7.30;;;;;;;;;;5093292;28;20782;-76
2021/06/23 04:46:18;;;;;;;8.33;5.50;;;;;;;;;;5093374;28;20457;-79
2021/06/23 04:48:44;;;;;;;10.97;5.60;;;;;;;;;;5096446;28;20432;-81
2021/06/23 04:51:12;;;;;;;14.63;6.63;;;;;;;;;;5103061;28;20817;-79
2021/06/23 04:53:38;;;;;;;12.77;6.67;;;;;;;;;;5093009;28;20435;-78
2021/06/23 04:56:04;;;;;;;15.83;6.10;;;;;;;;;;5093316;28;20427;-78
2021/06/23 04:58:31;;;;;;;12.73;5.80;;;;;;;;;;5093299;28;20414;-77
2021/06/23 05:00:57;;;;;;;13.57;7.00;;;;;;;;;;5093426;28;20422;-79
2021/06/23 05:03:23;;;;;;;11.80;6.20;;;;;;;;;;5093549;28;20431;-79
2021/06/23 05:05:49;;;;;;;11.60;6.30;;;;;;;;;;5096519;28;20453;-79
2021/06/23 05:08:15;;;;;;;7.90;5.20;;;;;;;;;;5100701;28;21064;-77
2021/06/23 05:10:41;;;;;;;8.30;5.60;;;;;;;;;;5107503;28;20406;-78
2021/06/23 05:13:07;;;;;;;15.93;6.07;;;;;;;;;;5097213;28;20958;-79
2021/06/23 05:15:33;;;;;;;9.10;6.20;;;;;;;;;;5097590;28;20813;-78
2021/06/23 05:18:00;;;;;;;13.93;6.07;;;;;;;;;;5097204;28;20436;-74
2021/06/23 05:20:26;;;;;;;13.20;5.70;;;;;;;;;;5097150;28;20463;-75
2021/06/23 05:22:52;;;;;;;10.50;6.37;;;;;;;;;;5100535;28;20468;-76
2021/06/23 05:25:19;;;;;;;17.40;5.77;;;;;;;;;;5106692;28;20461;-78
2021/06/23 05:27:45;;;;;;;11.40;5.87;;;;;;;;;;5097590;28;20414;-81
2021/06/23 05:30:11;;;;;;;14.77;5.30;;;;;;;;;;5106576;28;20450;-76
2021/06/23 05:32:37;;;;;;;15.90;7.10;;;;;;;;;;5102668;28;20442;-77
2021/06/23 05:35:04;;;;;;;13.37;6.13;;;;;;;;;;5096992;28;20434;-75
2021/06/23 05:37:31;;;;;;;12.43;6.37;;;;;;;;;;5096721;28;20435;-78
2021/06/23 05:39:57;;;;;;;14.83;5.20;;;;;;;;;;5096686;28;20407;-77
2021/06/23 05:42:23;;;;;;;13.87;5.53;;;;;;;;;;5096233;28;20435;-79
2021/06/23 05:44:49;;;;;;;13.53;6.30;;;;;;;;;;5096126;28;20501;-77
2021/06/23 05:47:15;;;;;;;7.50;5.20;;;;;;;;;;5100890;28;20432;-77
2021/06/23 05:49:41;;;;;;;9.67;6.07;;;;;;;;;;5116931;28;20425;-78
2021/06/23 05:52:07;;;;;;;10.17;4.97;;;;;;;;;;5099411;28;20443;-78
2021/06/23 05:54:33;;;;;;;10.17;5.03;;;;;;;;;;5095830;28;20419;-76
2021/06/23 05:56:59;;;;;;;9.73;7.10;;;;;;;;;;5096053;28;20472;-76
2021/06/23 05:59:25;;;;;;;9.60;5.00;;;;;;;;;;5096227;28;20884;-75
2021/06/23 06:01:52;;;;;;;7.37;6.20;;;;;;;;;;5096479;28;20487;-76
2021/06/23 06:04:18;;;;;;;9.87;6.33;;;;;;;;;;5095893;28;20495;-78
2021/06/23 06:06:44;;;;;;;15.60;7.10;;;;;;;;;;5106955;28;20469;-75
2021/06/23 06:09:10;;;;;;;8.30;5.20;;;;;;;;;;5096261;28;20774;-78
2021/06/23 06:11:36;;;;;;;11.00;6.20;;;;;;;;;;5097003;28;20490;-77
2021/06/23 06:14:03;;;;;;;7.63;5.37;;;;;;;;;;5095831;28;20406;-81
2021/06/23 06:16:29;;;;;;;11.43;6.13;;;;;;;;;;5094077;28;20418;-78
2021/06/23 06:18:56;;;;;;;14.10;7.20;;;;;;;;;;5094708;28;20425;-79
2021/06/23 06:21:23;;;;;;;10.80;6.33;;;;;;;;;;5102449;28;20424;-79
2021/06/23 06:23:49;;;;;;;9.60;5.67;;;;;;;;;;5101829;28;20820;-75
2021/06/23 06:26:15;;;;;;;10.17;5.67;;;;;;;;;;5098812;28;20458;-77
2021/06/23 06:28:41;;;;;;;8.63;5.83;;;;;;;;;;5101178;28;20518;-78
2021/06/23 06:31:07;;;;;;;16.40;6.90;;;;;;;;;;5095906;28;20406;-78
2021/06/23 06:33:34;;;;;;;12.73;6.10;;;;;;;;;;5091427;28;20466;-78
2021/06/23 06:36:00;;;;;;;13.43;6.00;;;;;;;;;;5091416;28;20415;-80
2021/06/23 06:38:26;;;;;;;9.17;5.10;;;;;;;;;;5112539;27;20504;-75
2021/06/23 06:40:52;;;;;;;20.40;8.23;;;;;;;;;;5096507;27;20405;-79
2021/06/23 06:43:18;;;;;;;13.27;5.47;;;;;;;;;;5091545;28;20435;-78
2021/06/23 06:45:49;;;;;;;9.40;5.53;;;;;;;;;;5098488;28;20466;-77
2021/06/23 06:48:16;;;;;;;8.47;5.70;;;;;;;;;;5104316;28;20423;-76
2021/06/23 06:50:42;;;;;;;15.07;6.60;;;;;;;;;;5111834;28;20416;-80
2021/06/23 06:53:08;;;;;;;11.40;6.43;;;;;;;;;;5112304;28;20435;-75
2021/06/23 06:55:34;;;;;;;9.90;6.03;;;;;;;;;;5111404;28;20419;-75
2021/06/23 06:58:00;;;;;;;8.93;5.50;;;;;;;;;;5111373;28;20434;-76
2021/06/23 07:00:26;;;;;;;10.40;5.23;;;;;;;;;;5111318;28;20495;-76
2021/06/23 07:02:53;;;;;;;10.93;6.40;;;;;;;;;;5111532;28;20539;-76
2021/06/23 07:05:20;;;;;;;14.40;6.70;;;;;;;;;;5112561;28;20494;-79
2021/06/23 07:07:46;;;;;;;9.47;6.10;;;;;;;;;;5111060;28;21294;-78
2021/06/23 07:10:12;;;;;;;12.00;6.00;;;;;;;;;;5111876;28;20491;-77
2021/06/23 07:12:38;;;;;;;8.27;5.87;;;;;;;;;;5100993;28;20440;-78
2021/06/23 07:15:05;;;;;;;12.67;7.10;;;;;;;;;;5101737;27;20427;-75
2021/06/23 07:17:31;;;;;;;10.03;5.60;;;;;;;;;;5091876;28;20421;-77
2021/06/23 07:19:57;;;;;;;8.90;4.87;;;;;;;;;;5092103;28;20935;-75
2021/06/23 07:22:23;;;;;;;7.33;4.50;;;;;;;;;;5096532;28;20444;-78
2021/06/23 07:24:50;;;;;;;10.43;4.80;;;;;;;;;;5103891;28;20431;-80
2021/06/23 07:27:16;;;;;;;6.57;4.50;;;;;;;;;;5091416;28;20913;-76
2021/06/23 07:29:42;;;;;;;5.17;4.10;;;;;;;;;;5102189;28;20453;-76
2021/06/23 07:32:13;;;;;;;8.70;4.50;;;;;;;;;;5091109;28;20464;-77
2021/06/23 07:37:11;;;;;;;8.20;4.43;;;;;;;;;;5090541;28;20881;-75
2021/06/23 07:39:37;;;;;;;7.70;4.37;;;;;;;;;;5091279;28;20801;-75
2021/06/23 07:42:08;;;;;;;6.60;4.27;;;;;;;;;;5091261;28;20439;-79
2021/06/23 07:44:38;;;;;;;7.90;5.17;;;;;;;;;;5091264;28;20731;-79
2021/06/23 07:47:12;;;;;;;9.20;7.43;;;;;;;;;;5093841;28;20454;-77
2021/06/23 07:49:43;;;;;;;8.50;4.70;;;;;;;;;;5111618;28;20896;-75
2021/06/23 07:54:45;;;;;;;8.80;4.10;;;;;;;;;;5112089;28;20821;-79
2021/06/23 08:10:33;;;;;;;7.03;3.80;;;;;;;;;;5098726;28;20401;-78
2021/06/23 08:12:59;;;;;;;8.00;4.23;;;;;;;;;;5101585;28;20429;-75
2021/06/23 08:15:29;;;;;;;6.53;4.60;;;;;;;;;;5104487;28;21181;-75
2021/06/23 08:17:55;;;;;;;6.70;4.10;;;;;;;;;;5110668;28;20500;-78
2021/06/23 08:20:22;;;;;;;4.43;3.80;;;;;;;;;;5091087;28;20530;-79
2021/06/23 08:22:48;;;;;;;6.27;3.40;;;;;;;;;;5102188;28;21003;-76
2021/06/23 08:25:14;;;;;;;8.23;3.60;;;;;;;;;;5090344;28;20549;-75
2021/06/23 08:27:41;;;;;;;9.17;4.47;;;;;;;;;;5092715;28;20534;-75
2021/06/23 08:30:07;;;;;;;5.00;3.90;;;;;;;;;;5095256;28;20421;-77
2021/06/23 08:32:33;;;;;;;5.20;3.97;;;;;;;;;;5089244;28;20432;-77
2021/06/23 08:34:59;;;;;;;6.57;3.40;;;;;;;;;;5089235;28;20449;-74
2021/06/23 08:37:25;;;;;;;6.30;3.40;;;;;;;;;;5089305;28;20896;-80
2021/06/23 08:39:51;;;;;;;7.60;4.20;;;;;;;;;;5088547;28;20418;-75
2021/06/23 08:42:20;;;;;;;7.07;3.93;;;;;;;;;;5089107;28;20467;-80
2021/06/23 08:44:46;;;;;;;5.40;4.10;;;;;;;;;;5088997;28;20921;-80
2021/06/23 08:47:13;;;;;;;11.13;4.27;;;;;;;;;;5093599;28;20426;-78
2021/06/23 08:49:39;;;;;;;8.23;4.20;;;;;;;;;;5109909;28;20420;-74
2021/06/23 08:52:05;;;;;;;7.13;4.03;;;;;;;;;;5109702;28;20425;-76
2021/06/23 08:54:31;;;;;;;6.30;3.60;;;;;;;;;;5108052;28;21112;-78
2021/06/23 08:56:57;;;;;;;5.57;3.60;;;;;;;;;;5109904;28;20417;-78
2021/06/23 08:59:23;;;;;;;7.60;4.30;;;;;;;;;;5109449;28;20497;-77
2021/06/23 09:01:50;;;;;;;5.03;3.70;;;;;;;;;;5091803;28;20987;-77
2021/06/23 09:04:17;;;;;;;6.37;4.10;;;;;;;;;;5090074;28;20417;-80
2021/06/23 09:06:43;;;;;;;4.80;3.63;;;;;;;;;;5088859;28;20468;-76
2021/06/23 09:09:23;;;;;;;5.70;3.33;;;;;;;;;;5088918;28;20498;-72
2021/06/23 09:11:50;;;;;;;4.70;3.63;;;;;;;;;;5088768;28;21020;-74
2021/06/23 09:14:17;;;;;;;7.00;3.47;;;;;;;;;;5093440;28;20458;-74
2021/06/23 09:17:03;;;;;;;6.00;3.43;;;;;;;;;;5089071;28;20425;-73
2021/06/23 09:19:30;;;;;;;6.93;3.60;;;;;;;;;;5088593;28;20869;-74
2021/06/23 09:21:56;;;;;;;4.40;3.43;;;;;;;;;;5088847;28;20434;-74
2021/06/23 09:24:33;;;;;;;5.73;3.70;;;;;;;;;;5094437;28;20478;-75
2021/06/23 09:26:59;;;;;;;6.80;3.43;;;;;;;;;;5088879;28;20479;-73
2021/06/23 09:29:25;;;;;;;10.40;3.40;;;;;;;;;;5098667;28;20427;-76
2021/06/23 09:31:59;;;;;;;5.90;3.40;;;;;;;;;;5088867;28;20426;-72
2021/06/23 09:34:26;;;;;;;5.40;3.60;;;;;;;;;;5088517;28;20505;-73
2021/06/23 09:36:53;;;;;;;4.47;3.50;;;;;;;;;;5088718;28;20503;-74
2021/06/23 09:39:20;;;;;;;5.30;3.57;;;;;;;;;;5088603;28;20424;-73
2021/06/23 09:41:46;;;;;;;8.63;4.10;;;;;;;;;;5088829;28;20910;-74
2021/06/23 09:44:12;;;;;;;5.40;3.10;;;;;;;;;;5088754;28;20918;-73
2021/06/23 09:46:40;;;;;;;4.47;3.77;;;;;;;;;;5088813;28;20468;-76
2021/06/23 09:49:12;;;;;;;5.00;3.53;;;;;;;;;;5108604;28;20412;-75
2021/06/23 09:51:48;;;;;;;4.90;3.57;;;;;;;;;;5111577;28;20410;-75
2021/06/23 09:54:15;;;;;;;4.93;3.17;;;;;;;;;;5112502;28;20418;-71
2021/06/23 09:56:46;;;;;;;7.00;3.47;;;;;;;;;;5112513;28;20416;-75
2021/06/23 09:59:24;;;;;;;5.00;3.90;;;;;;;;;;5102532;27;20441;-72
2021/06/23 10:01:50;;;;;;;8.77;3.67;;;;;;;;;;5091875;28;20840;-75
2021/06/23 10:04:16;;;;;;;15.77;13.50;;;;;;;;;;5091900;28;20469;-77
2021/06/23 10:06:45;;;;;;;4.77;3.60;;;;;;;;;;5092164;28;20461;-71
2021/06/23 10:09:27;;;;;;;3.80;3.20;;;;;;;;;;5092137;28;20465;-71
2021/06/23 10:11:57;;;;;;;3.50;2.80;;;;;;;;;;5096128;28;20421;-71
2021/06/23 10:14:25;;;;;;;4.77;3.10;;;;;;;;;;5097185;28;20400;-73
2021/06/23 10:16:52;;;;;;;3.23;2.93;;;;;;;;;;5112446;27;20931;-75
2021/06/23 10:19:18;;;;;;;5.07;3.37;;;;;;;;;;5101059;28;20440;-74
2021/06/23 10:21:45;;;;;;;5.57;3.23;;;;;;;;;;5091612;28;20499;-71
2021/06/23 10:24:12;;;;;;;5.30;2.90;;;;;;;;;;5098959;28;20539;-75
2021/06/23 10:26:39;;;;;;;5.13;3.13;;;;;;;;;;5103391;28;20607;-76
2021/06/23 10:29:07;;;;;;;5.63;3.20;;;;;;;;;;5101747;28;20816;-74
2021/06/23 10:31:34;;;;;;;3.70;3.13;;;;;;;;;;5091474;28;20462;-76
2021/06/23 10:34:00;;;;;;;3.60;3.30;;;;;;;;;;5091394;28;20441;-78
2021/06/23 10:36:26;;;;;;;5.07;3.07;;;;;;;;;;5091659;28;20441;-76
2021/06/23 10:38:54;;;;;;;4.53;3.00;;;;;;;;;;5091220;28;20421;-73
2021/06/23 10:41:20;;;;;;;5.60;3.30;;;;;;;;;;5091202;28;20413;-72
2021/06/23 10:44:05;;;;;;;4.60;2.97;;;;;;;;;;5091082;28;20453;-73
2021/06/23 10:46:38;;;;;;;6.37;3.80;;;;;;;;;;5091123;28;20555;-72
2021/06/23 10:49:04;;;;;;;4.20;2.73;;;;;;;;;;5110736;28;20416;-74
2021/06/23 10:51:30;;;;;;;4.70;3.63;;;;;;;;;;5109950;28;20495;-73
2021/06/23 10:53:56;;;;;;;6.47;4.27;;;;;;;;;;5111202;28;20466;-72
2021/06/23 10:56:42;;;;;;;4.80;3.10;;;;;;;;;;5111484;28;20473;-74
2021/06/23 10:59:26;;;;;;;5.00;3.47;;;;;;;;;;5106164;28;20416;-74
2021/06/23 11:02:09;;;;;;;6.57;3.30;;;;;;;;;;5110754;28;20436;-76
2021/06/23 11:04:53;;;;;;;7.03;4.30;;;;;;;;;;5110947;28;20474;-73
2021/06/23 11:07:35;;;;;;;5.83;3.80;;;;;;;;;;5092021;28;20536;-77
2021/06/23 11:10:36;;;;;;;6.20;3.70;;;;;;;;;;5090707;28;20500;-73
2021/06/23 11:13:06;;;;;;;4.57;3.30;;;;;;;;;;5087495;28;21031;-75
2021/06/23 11:15:33;;;;;;;4.30;3.87;;;;;;;;;;5098835;27;20401;-74
2021/06/23 11:18:19;;;;;;;6.40;3.70;;;;;;;;;;5083248;28;20803;-74
2021/06/23 11:21:03;;;;;;;4.97;4.47;;;;;;;;;;5068954;28;20978;-77
2021/06/23 11:23:45;;;;;;;8.83;7.60;;;;;;;;;;5069838;28;20931;-76
2021/06/23 11:26:21;;;;;;;6.53;3.60;;;;;;;;;;5075395;28;20570;-74
2021/06/23 11:28:47;;;;;;;5.53;3.77;;;;;;;;;;5090298;28;20409;-77
2021/06/23 11:31:14;;;;;;;5.10;3.37;;;;;;;;;;5069986;28;20417;-78
2021/06/23 11:33:39;;;;;;;5.20;3.77;;;;;;;;;;5073575;28;20473;-77
2021/06/23 11:36:10;;;;;;;5.40;4.30;;;;;;;;;;5069862;28;20453;-74
2021/06/23 11:38:36;;;;;;;5.40;3.80;;;;;;;;;;5069498;28;20450;-75
2021/06/23 11:41:03;;;;;;;6.70;4.00;;;;;;;;;;5070059;28;20895;-75
2021/06/23 11:43:29;;;;;;;4.53;3.50;;;;;;;;;;5069609;28;20499;-74
2021/06/23 11:45:55;;;;;;;6.13;4.20;;;;;;;;;;5069595;28;20989;-75
2021/06/23 11:48:23;;;;;;;4.87;4.37;;;;;;;;;;5083829;28;20508;-76
2021/06/23 11:50:49;;;;;;;21.30;16.50;;;;;;;;;;5088632;28;20417;-76
2021/06/23 11:53:16;;;;;;;5.10;3.90;;;;;;;;;;5069846;28;20457;-76
2021/06/23 11:55:43;;;;;;;5.77;3.93;;;;;;;;;;5069678;28;20450;-73
2021/06/23 11:58:10;;;;;;;4.50;3.50;;;;;;;;;;5069991;28;20810;-75
2021/06/23 12:00:37;;;;;;;4.60;3.83;;;;;;;;;;5072570;28;20410;-76
2021/06/23 12:03:03;;;;;;;4.40;3.57;;;;;;;;;;5089846;28;20445;-78
2021/06/23 12:05:30;;;;;;;4.60;3.83;;;;;;;;;;5089787;28;20461;-76
2021/06/23 12:07:57;;;;;;;5.87;3.77;;;;;;;;;;5089704;28;21004;-75
2021/06/23 12:10:24;;;;;;;8.70;7.70;;;;;;;;;;5089692;28;20409;-76
2021/06/23 12:12:51;;;;;;;8.47;4.50;;;;;;;;;;5078124;28;20833;-76
2021/06/23 12:15:20;;;;;;;5.30;3.80;;;;;;;;;;5077983;28;20422;-74
2021/06/23 12:17:46;;;;;;;5.90;4.00;;;;;;;;;;5069167;28;20418;-73
2021/06/23 12:20:13;;;;;;;6.80;5.33;;;;;;;;;;5069311;28;20978;-74
2021/06/23 12:22:39;;;;;;;7.07;4.30;;;;;;;;;;5068991;28;20532;-75
2021/06/23 12:25:06;;;;;;;4.87;3.20;;;;;;;;;;5076216;28;21283;-77
2021/06/23 12:27:32;;;;;;;5.00;3.97;;;;;;;;;;5086328;28;20418;-78
2021/06/23 12:29:58;;;;;;;4.07;3.67;;;;;;;;;;5071085;28;20472;-76
2021/06/23 12:32:24;;;;;;;6.53;3.70;;;;;;;;;;5082591;28;20467;-75
2021/06/23 12:34:51;;;;;;;6.03;4.80;;;;;;;;;;5069029;28;20826;-73
2021/06/23 12:37:17;;;;;;;5.50;3.77;;;;;;;;;;5068951;28;20407;-74
2021/06/23 12:39:43;;;;;;;3.90;3.10;;;;;;;;;;5067554;28;20763;-75
2021/06/23 12:42:09;;;;;;;5.43;4.10;;;;;;;;;;5068860;28;20795;-72
2021/06/23 12:44:36;;;;;;;3.60;3.30;;;;;;;;;;5068764;28;20411;-74
2021/06/23 12:47:03;;;;;;;5.13;3.67;;;;;;;;;;5071378;28;20517;-75
2021/06/23 12:49:31;;;;;;;4.30;3.17;;;;;;;;;;5089096;28;20410;-73
2021/06/23 12:51:58;;;;;;;3.97;2.80;;;;;;;;;;5069153;28;20445;-76
2021/06/23 12:54:24;;;;;;;4.70;3.57;;;;;;;;;;5068999;28;20432;-72
2021/06/23 12:56:50;;;;;;;3.20;2.90;;;;;;;;;;5068805;28;20419;-73
2021/06/23 12:59:16;;;;;;;3.40;3.10;;;;;;;;;;5068761;28;20426;-77
2021/06/23 13:01:42;;;;;;;4.43;3.07;;;;;;;;;;5081007;28;20436;-75
2021/06/23 13:04:08;;;;;;;3.50;2.90;;;;;;;;;;5089115;28;20413;-76
2021/06/23 13:06:36;;;;;;;3.90;3.33;;;;;;;;;;5088657;28;20545;-72
2021/06/23 13:09:02;;;;;;;4.03;3.00;;;;;;;;;;5087514;28;20456;-74
2021/06/23 13:11:28;;;;;;;5.17;3.27;;;;;;;;;;5088743;28;20421;-75
2021/06/23 13:13:55;;;;;;;4.70;3.20;;;;;;;;;;5068669;28;20490;-75
2021/06/23 13:16:21;;;;;;;19.07;16.00;;;;;;;;;;5068510;28;20422;-71
2021/06/23 13:18:47;;;;;;;8.57;3.70;;;;;;;;;;5068557;28;20495;-73
2021/06/23 13:21:14;;;;;;;4.27;3.00;;;;;;;;;;5068560;28;20426;-77
2021/06/23 13:23:40;;;;;;;3.87;3.07;;;;;;;;;;5068576;28;20483;-76
2021/06/23 13:26:06;;;;;;;5.00;3.47;;;;;;;;;;5087531;28;20461;-76
2021/06/23 13:28:32;;;;;;;5.13;3.20;;;;;;;;;;5089730;28;20414;-76
2021/06/23 13:30:58;;;;;;;5.93;3.40;;;;;;;;;;5075910;28;20497;-75
2021/06/23 13:33:24;;;;;;;4.70;3.77;;;;;;;;;;5072245;28;20953;-77
2021/06/23 13:35:50;;;;;;;6.23;3.83;;;;;;;;;;5070664;28;21057;-73
2021/06/23 13:38:16;;;;;;;9.37;3.10;;;;;;;;;;5072192;28;20418;-76
2021/06/23 13:40:42;;;;;;;4.23;3.40;;;;;;;;;;5072026;28;20414;-78
2021/06/23 13:43:09;;;;;;;4.10;3.00;;;;;;;;;;5071905;28;20437;-75
2021/06/23 13:45:35;;;;;;;4.27;3.40;;;;;;;;;;5072008;28;20548;-72
2021/06/23 13:48:02;;;;;;;5.17;3.53;;;;;;;;;;5082349;28;20979;-74
2021/06/23 13:50:29;;;;;;;6.03;3.17;;;;;;;;;;5092304;28;20491;-73
2021/06/23 13:52:55;;;;;;;6.40;3.43;;;;;;;;;;5091961;28;20895;-73
2021/06/23 13:55:24;;;;;;;3.63;3.33;;;;;;;;;;5092000;28;20931;-74
2021/06/23 13:57:51;;;;;;;4.90;3.10;;;;;;;;;;5092025;28;20417;-73
2021/06/23 14:00:18;;;;;;;4.90;3.23;;;;;;;;;;5091198;28;20759;-75
2021/06/23 14:02:44;;;;;;;4.93;3.63;;;;;;;;;;5100518;28;21250;-74
2021/06/23 14:05:10;;;;;;;4.03;3.00;;;;;;;;;;5075063;28;20414;-75
2021/06/23 14:07:36;;;;;;;4.50;3.00;;;;;;;;;;5070890;28;20942;-72
2021/06/23 14:10:04;;;;;;;4.00;2.90;;;;;;;;;;5078077;28;20939;-78
2021/06/23 14:12:30;;;;;;;4.97;3.13;;;;;;;;;;5071469;28;20426;-76
2021/06/23 14:14:56;;;;;;;4.20;2.90;;;;;;;;;;5071395;28;20414;-72
2021/06/23 14:17:22;;;;;;;7.00;3.30;;;;;;;;;;5071309;28;20445;-74
2021/06/23 14:19:48;;;;;;;3.47;2.90;;;;;;;;;;5071149;28;20456;-75
2021/06/23 14:22:15;;;;;;;3.40;3.10;;;;;;;;;;5071415;28;20434;-71
2021/06/23 14:24:41;;;;;;;4.23;3.00;;;;;;;;;;5076264;28;20920;-77
2021/06/23 14:27:07;;;;;;;3.30;2.50;;;;;;;;;;5091791;28;20464;-75
2021/06/23 14:29:33;;;;;;;4.00;2.63;;;;;;;;;;5083206;28;20432;-75
2021/06/23 14:31:59;;;;;;;4.93;3.03;;;;;;;;;;5071330;28;20556;-76
2021/06/23 14:34:25;;;;;;;3.03;2.60;;;;;;;;;;5071032;28;20962;-76
2021/06/23 14:36:51;;;;;;;5.10;3.10;;;;;;;;;;5070491;28;20428;-74
2021/06/23 14:39:18;;;;;;;3.53;2.97;;;;;;;;;;5071076;28;20418;-73
2021/06/23 14:41:44;;;;;;;3.40;2.50;;;;;;;;;;5071275;28;20448;-76
2021/06/23 14:44:10;;;;;;;3.30;2.33;;;;;;;;;;5071017;28;20450;-69
2021/06/23 14:46:37;;;;;;;2.80;2.30;;;;;;;;;;5070082;28;20493;-73
2021/06/23 14:49:06;;;;;;;2.80;2.40;;;;;;;;;;5083094;28;20946;-74
2021/06/23 14:51:32;;;;;;;3.33;2.60;;;;;;;;;;5070688;28;20975;-75
2021/06/23 14:53:58;;;;;;;3.23;2.30;;;;;;;;;;5071030;28;20422;-74
2021/06/23 14:56:25;;;;;;;3.50;2.77;;;;;;;;;;5070871;28;20449;-72
2021/06/23 14:58:51;;;;;;;5.80;2.73;;;;;;;;;;5070829;28;20418;-74
2021/06/23 15:01:17;;;;;;;4.23;2.50;;;;;;;;;;5091126;28;20424;-74